createdAt,value
2019-02-28T00:01:48.025Z,6.98
2019-02-28T00:04:35.724Z,6.95
2019-02-28T00:07:23.698Z,6.89
2019-02-28T00:10:11.623Z,6.91
2019-02-28T00:12:59.689Z,6.92
2019-02-28T00:15:48.053Z,6.87
2019-02-28T00:18:35.954Z,6.95
2019-02-28T00:21:23.828Z,6.93
2019-02-28T00:24:12.116Z,6.92
2019-02-28T00:27:00.126Z,6.76
2019-02-28T00:29:48.414Z,6.73
2019-02-28T00:32:36.541Z,6.76
2019-02-28T00:35:24.102Z,6.85
2019-02-28T00:38:12.070Z,6.83
2019-02-28T00:40:59.885Z,6.83
2019-02-28T00:43:47.982Z,6.84
2019-02-28T00:46:35.940Z,6.81
2019-02-28T00:49:24.504Z,6.70
2019-02-28T00:52:12.887Z,6.60
2019-02-28T00:55:00.967Z,6.50
2019-02-28T00:57:49.104Z,6.32
2019-02-28T01:00:38.171Z,6.28
2019-02-28T01:03:27.305Z,6.32
2019-02-28T01:06:15.464Z,6.22
2019-02-28T01:09:03.315Z,5.99
2019-02-28T01:11:51.416Z,6.04
2019-02-28T01:14:39.026Z,6.05
2019-02-28T01:17:27.502Z,5.90
2019-02-28T01:20:16.704Z,5.76
2019-02-28T01:23:07.035Z,5.99
2019-02-28T01:25:55.083Z,5.84
2019-02-28T01:28:43.018Z,5.79
2019-02-28T01:31:31.284Z,5.73
2019-02-28T01:34:19.062Z,5.77
2019-02-28T01:37:07.042Z,5.78
2019-02-28T01:39:54.768Z,5.87
2019-02-28T01:42:42.809Z,5.83
2019-02-28T01:45:30.582Z,5.88
2019-02-28T01:48:18.525Z,5.96
2019-02-28T01:51:06.645Z,5.86
2019-02-28T01:53:54.536Z,5.76
2019-02-28T01:56:42.573Z,5.81
2019-02-28T01:59:30.659Z,5.78
2019-02-28T02:02:18.155Z,6.02
2019-02-28T02:05:06.533Z,5.87
2019-02-28T02:07:54.391Z,5.66
2019-02-28T02:10:42.566Z,5.62
2019-02-28T02:13:30.840Z,5.61
2019-02-28T02:16:19.215Z,5.60
2019-02-28T02:19:06.616Z,5.65
2019-02-28T02:21:54.572Z,5.63
2019-02-28T02:24:42.508Z,5.53
2019-02-28T02:27:30.904Z,5.67
2019-02-28T02:30:20.859Z,5.70
2019-02-28T02:33:13.550Z,5.66
2019-02-28T02:35:58.674Z,5.76
2019-02-28T02:38:46.215Z,5.56
2019-02-28T02:41:34.652Z,5.69
2019-02-28T02:44:22.809Z,5.73
2019-02-28T02:47:11.023Z,5.55
2019-02-28T02:49:58.488Z,5.50
2019-02-28T02:52:46.492Z,5.67
2019-02-28T02:55:34.568Z,5.70
2019-02-28T02:58:26.898Z,5.63
2019-02-28T03:01:11.701Z,5.74
2019-02-28T03:04:00.041Z,5.43
2019-02-28T03:06:47.917Z,5.54
2019-02-28T03:09:35.491Z,5.55
2019-02-28T03:12:23.362Z,5.62
2019-02-28T03:15:12.835Z,5.62
2019-02-28T03:18:01.031Z,5.57
2019-02-28T03:20:48.908Z,5.63
2019-02-28T03:23:39.814Z,5.58
2019-02-28T03:26:26.533Z,5.55
2019-02-28T03:29:15.836Z,5.56
2019-02-28T03:32:03.418Z,5.57
2019-02-28T03:34:58.369Z,5.58
2019-02-28T03:37:40.709Z,5.54
2019-02-28T03:40:28.751Z,5.48
2019-02-28T03:43:16.649Z,5.68
2019-02-28T03:46:06.288Z,5.25
2019-02-28T03:48:54.299Z,5.38
2019-02-28T03:51:42.170Z,5.43
2019-02-28T03:54:30.549Z,5.41
2019-02-28T03:57:18.648Z,5.23
2019-02-28T04:00:10.317Z,5.29
2019-02-28T04:02:59.079Z,5.20
2019-02-28T04:05:47.028Z,5.25
2019-02-28T04:08:35.063Z,5.14
2019-02-28T04:11:23.092Z,5.28
2019-02-28T04:14:11.036Z,5.28
2019-02-28T04:16:59.095Z,5.18
2019-02-28T04:19:47.109Z,5.19
2019-02-28T04:22:34.956Z,5.18
2019-02-28T04:25:24.314Z,4.95
2019-02-28T04:28:17.190Z,4.81
2019-02-28T04:31:02.284Z,4.91
2019-02-28T04:33:50.253Z,4.87
2019-02-28T04:36:38.085Z,4.75
2019-02-28T04:39:26.413Z,4.82
2019-02-28T04:42:14.204Z,4.83
2019-02-28T04:45:02.494Z,4.91
2019-02-28T04:47:50.515Z,5.00
2019-02-28T04:50:38.044Z,4.90
2019-02-28T04:53:26.004Z,4.87
2019-02-28T04:56:14.119Z,4.87
2019-02-28T04:59:01.981Z,4.78
2019-02-28T05:01:49.517Z,4.93
2019-02-28T05:04:37.826Z,5.04
2019-02-28T05:07:26.247Z,5.14
2019-02-28T05:10:15.646Z,4.77
2019-02-28T05:13:03.251Z,4.86
2019-02-28T05:15:51.412Z,4.75
2019-02-28T05:18:39.361Z,4.71
2019-02-28T05:21:27.608Z,5.09
2019-02-28T05:24:15.508Z,5.16
2019-02-28T05:27:03.361Z,5.16
2019-02-28T05:29:51.443Z,4.95
2019-02-28T05:32:39.621Z,4.93
2019-02-28T05:35:27.748Z,4.93
2019-02-28T05:38:20.745Z,4.86
2019-02-28T05:41:05.344Z,4.77
2019-02-28T05:43:53.397Z,4.95
2019-02-28T05:46:41.476Z,4.77
2019-02-28T05:49:29.419Z,4.44
2019-02-28T05:52:17.384Z,4.39
2019-02-28T05:55:05.526Z,4.63
2019-02-28T05:57:53.663Z,4.58
2019-02-28T06:00:41.543Z,4.48
2019-02-28T06:03:30.470Z,4.62
2019-02-28T06:06:20.164Z,4.60
2019-02-28T06:09:13.719Z,4.46
2019-02-28T06:12:00.860Z,4.56
2019-02-28T06:14:48.895Z,4.61
2019-02-28T06:17:36.779Z,4.61
2019-02-28T06:20:24.764Z,4.73
2019-02-28T06:23:13.028Z,4.70
2019-02-28T06:26:01.105Z,4.63
2019-02-28T06:28:49.258Z,4.78
2019-02-28T06:31:37.173Z,4.72
2019-02-28T06:34:25.091Z,4.89
2019-02-28T06:37:12.946Z,4.90
2019-02-28T06:40:01.144Z,5.14
2019-02-28T06:42:48.922Z,5.18
2019-02-28T06:45:37.815Z,5.66
2019-02-28T06:48:26.744Z,6.38
2019-02-28T06:51:16.863Z,7.48
2019-02-28T06:54:07.895Z,8.65
2019-02-28T06:56:55.310Z,9.31
2019-02-28T06:59:43.224Z,10.18
2019-02-28T07:02:32.201Z,10.73
2019-02-28T07:05:24.628Z,11.38
2019-02-28T07:08:09.550Z,11.51
2019-02-28T07:10:57.622Z,11.52
2019-02-28T07:13:45.604Z,10.81
2019-02-28T07:16:37.091Z,10.12
2019-02-28T07:19:26.292Z,9.17
2019-02-28T07:22:19.148Z,8.59
2019-02-28T07:25:02.681Z,8.31
2019-02-28T07:27:50.567Z,8.31
2019-02-28T07:30:39.122Z,8.60
2019-02-28T07:33:27.023Z,9.51
2019-02-28T07:36:14.563Z,10.42
2019-02-28T07:39:04.485Z,11.34
2019-02-28T07:41:53.101Z,12.02
2019-02-28T07:44:41.189Z,12.00
2019-02-28T07:47:28.998Z,12.55
2019-02-28T07:50:17.181Z,12.53
2019-02-28T07:53:05.632Z,12.44
2019-02-28T07:55:55.055Z,12.33
2019-02-28T07:58:42.958Z,12.21
2019-02-28T08:01:31.019Z,12.58
2019-02-28T08:04:19.404Z,12.96
2019-02-28T08:07:07.720Z,13.50
2019-02-28T08:09:58.056Z,13.08
2019-02-28T08:12:45.641Z,12.81
2019-02-28T08:15:33.546Z,13.47
2019-02-28T08:18:21.640Z,13.71
2019-02-28T08:21:09.758Z,14.12
2019-02-28T08:23:57.559Z,14.34
2019-02-28T08:26:45.540Z,14.07
2019-02-28T08:29:33.745Z,14.56
2019-02-28T08:32:22.074Z,14.81
2019-02-28T08:35:10.855Z,14.64
2019-02-28T08:37:58.962Z,14.36
2019-02-28T08:40:50.501Z,14.21
2019-02-28T08:43:36.423Z,14.03
2019-02-28T08:46:24.498Z,14.29
2019-02-28T08:49:12.010Z,14.08
2019-02-28T08:52:02.557Z,14.09
2019-02-28T08:54:49.043Z,14.15
2019-02-28T08:57:37.274Z,14.13
2019-02-28T09:00:31.085Z,13.84
2019-02-28T09:03:14.877Z,13.96
2019-02-28T09:06:07.145Z,14.10
2019-02-28T09:08:56.587Z,14.17
2019-02-28T09:11:43.156Z,14.27
2019-02-28T09:14:30.855Z,14.13
2019-02-28T09:17:19.387Z,13.78
2019-02-28T09:20:10.495Z,13.73
2019-02-28T09:23:01.661Z,13.27
2019-02-28T09:25:47.386Z,13.10
2019-02-28T09:28:35.598Z,12.95
2019-02-28T09:31:23.631Z,12.70
2019-02-28T09:34:11.838Z,12.70
2019-02-28T09:37:00.015Z,12.52
2019-02-28T09:39:51.314Z,12.54
2019-02-28T09:42:38.039Z,12.64
2019-02-28T09:45:26.148Z,12.68
2019-02-28T09:48:14.068Z,12.68
2019-02-28T09:51:02.632Z,12.79
2019-02-28T09:53:51.007Z,12.82
2019-02-28T09:56:41.128Z,13.07
2019-02-28T09:59:28.131Z,13.15
2019-02-28T10:02:16.402Z,13.28
2019-02-28T10:05:06.677Z,13.32
2019-02-28T10:08:01.717Z,13.39
2019-02-28T10:10:44.697Z,13.42
2019-02-28T10:13:32.689Z,13.66
2019-02-28T10:16:20.984Z,13.80
2019-02-28T10:19:10.288Z,13.77
2019-02-28T10:21:59.001Z,13.95
2019-02-28T10:24:46.758Z,13.97
2019-02-28T10:27:35.002Z,14.17
2019-02-28T10:30:31.135Z,14.23
2019-02-28T10:33:14.358Z,14.38
2019-02-28T10:36:02.449Z,14.46
2019-02-28T10:38:50.027Z,14.52
2019-02-28T10:41:37.842Z,14.50
2019-02-28T10:44:30.343Z,14.42
2019-02-28T10:47:15.232Z,14.61
2019-02-28T10:50:03.593Z,14.67
2019-02-28T10:52:51.642Z,14.81
2019-02-28T10:55:39.977Z,15.02
2019-02-28T10:58:27.940Z,15.15
2019-02-28T11:01:17.840Z,15.22
2019-02-28T11:04:07.381Z,15.18
2019-02-28T11:06:55.528Z,15.27
2019-02-28T11:09:43.353Z,15.42
2019-02-28T11:12:31.403Z,15.20
2019-02-28T11:15:23.185Z,15.45
2019-02-28T11:18:11.520Z,15.60
2019-02-28T11:20:59.469Z,15.64
2019-02-28T11:23:50.071Z,15.63
2019-02-28T11:26:37.022Z,15.53
2019-02-28T11:29:25.068Z,15.68
2019-02-28T11:32:13.110Z,15.74
2019-02-28T11:35:00.987Z,15.73
2019-02-28T11:37:48.780Z,15.82
2019-02-28T11:40:37.039Z,15.67
2019-02-28T11:43:26.742Z,15.72
2019-02-28T11:46:14.605Z,15.91
2019-02-28T11:49:02.898Z,16.12
2019-02-28T11:51:53.064Z,16.23
2019-02-28T11:54:40.721Z,16.35
2019-02-28T11:57:28.810Z,16.44
2019-02-28T12:00:19.898Z,16.59
2019-02-28T12:03:07.924Z,16.72
2019-02-28T12:05:56.122Z,16.89
2019-02-28T12:08:44.924Z,16.78
2019-02-28T12:11:36.488Z,16.79
2019-02-28T12:14:23.226Z,16.76
2019-02-28T12:17:11.133Z,16.90
2019-02-28T12:19:59.459Z,16.69
2019-02-28T12:22:49.329Z,16.89
2019-02-28T12:25:39.624Z,16.73
2019-02-28T12:28:26.543Z,16.94
2019-02-28T12:31:14.213Z,16.94
2019-02-28T12:34:02.447Z,16.83
2019-02-28T12:36:50.503Z,16.80
2019-02-28T12:39:38.537Z,17.07
2019-02-28T12:42:26.792Z,17.30
2019-02-28T12:45:17.703Z,17.21
2019-02-28T12:48:05.710Z,17.29
2019-02-28T12:50:53.170Z,17.27
2019-02-28T12:53:41.111Z,17.40
2019-02-28T12:56:28.995Z,17.34
2019-02-28T12:59:17.058Z,17.39
2019-02-28T13:02:08.486Z,17.38
2019-02-28T13:04:54.915Z,17.19
2019-02-28T13:07:42.991Z,17.31
2019-02-28T13:10:31.217Z,17.40
2019-02-28T13:13:21.006Z,17.55
2019-02-28T13:16:09.141Z,17.66
2019-02-28T13:18:56.900Z,17.71
2019-02-28T13:21:46.765Z,17.60
2019-02-28T13:24:34.337Z,17.42
2019-02-28T13:27:22.135Z,17.52
2019-02-28T13:30:13.410Z,17.34
2019-02-28T13:33:01.674Z,17.39
2019-02-28T13:35:49.661Z,17.49
2019-02-28T13:38:37.892Z,17.72
2019-02-28T13:41:26.401Z,17.75
2019-02-28T13:44:15.687Z,17.68
2019-02-28T13:47:09.127Z,17.74
2019-02-28T13:49:53.379Z,17.64
2019-02-28T13:52:41.263Z,17.65
2019-02-28T13:55:29.310Z,17.58
2019-02-28T13:58:17.662Z,17.64
2019-02-28T14:01:06.611Z,17.58
2019-02-28T14:03:54.123Z,17.67
2019-02-28T14:06:42.555Z,17.68
2019-02-28T14:09:30.165Z,17.69
2019-02-28T14:12:20.765Z,17.65
2019-02-28T14:15:09.389Z,17.68
2019-02-28T14:17:57.243Z,17.72
2019-02-28T14:20:45.325Z,17.56
2019-02-28T14:23:32.862Z,17.58
2019-02-28T14:26:20.707Z,17.65
2019-02-28T14:29:10.705Z,17.71
2019-02-28T14:31:58.327Z,17.76
2019-02-28T14:34:46.248Z,17.81
2019-02-28T14:37:34.386Z,17.88
2019-02-28T14:40:22.524Z,17.71
2019-02-28T14:43:10.960Z,17.73
2019-02-28T14:45:59.073Z,17.74
2019-02-28T14:48:47.749Z,17.81
2019-02-28T14:51:35.689Z,17.77
2019-02-28T14:54:24.650Z,17.73
2019-02-28T14:57:16.682Z,17.74
2019-02-28T15:00:06.282Z,17.71
2019-02-28T15:02:52.651Z,17.69
2019-02-28T15:05:40.526Z,17.73
2019-02-28T15:08:28.679Z,17.75
2019-02-28T15:11:16.463Z,17.68
2019-02-28T15:14:05.636Z,17.56
2019-02-28T15:16:54.003Z,17.64
2019-02-28T15:19:42.052Z,17.40
2019-02-28T15:22:30.368Z,17.49
2019-02-28T15:25:19.405Z,17.44
2019-02-28T15:28:07.370Z,17.30
2019-02-28T15:30:55.263Z,17.15
2019-02-28T15:33:42.917Z,17.20
2019-02-28T15:36:30.555Z,17.27
2019-02-28T15:39:18.504Z,17.09
2019-02-28T15:42:08.192Z,17.20
2019-02-28T15:44:56.356Z,17.10
2019-02-28T15:47:44.491Z,17.04
2019-02-28T15:50:32.377Z,17.00
2019-02-28T15:53:21.882Z,16.97
2019-02-28T15:56:13.271Z,16.96
2019-02-28T15:58:59.364Z,16.75
2019-02-28T16:01:47.748Z,16.74
2019-02-28T16:04:35.992Z,16.68
2019-02-28T16:07:24.068Z,16.69
2019-02-28T16:10:14.227Z,16.51
2019-02-28T16:13:02.460Z,16.30
2019-02-28T16:15:50.380Z,16.33
2019-02-28T16:18:38.497Z,16.45
2019-02-28T16:21:26.517Z,16.44
2019-02-28T16:24:14.437Z,16.46
2019-02-28T16:27:02.803Z,16.41
2019-02-28T16:29:52.340Z,16.23
2019-02-28T16:32:39.802Z,15.90
2019-02-28T16:35:29.036Z,15.78
2019-02-28T16:38:17.363Z,15.55
2019-02-28T16:41:05.237Z,15.35
2019-02-28T16:43:55.542Z,15.32
2019-02-28T16:46:42.767Z,15.19
2019-02-28T16:49:30.771Z,15.09
2019-02-28T16:52:18.773Z,14.86
2019-02-28T16:55:07.471Z,14.56
2019-02-28T16:57:55.769Z,14.54
2019-02-28T17:00:46.145Z,14.36
2019-02-28T17:03:33.270Z,14.28
2019-02-28T17:06:21.139Z,14.14
2019-02-28T17:09:16.124Z,13.87
2019-02-28T17:12:35.237Z,13.88
2019-02-28T17:15:29.542Z,13.69
2019-02-28T17:18:21.641Z,13.60
2019-02-28T17:21:09.227Z,13.46
2019-02-28T17:23:56.835Z,13.42
2019-02-28T17:27:14.878Z,13.33
2019-02-28T17:30:23.397Z,13.30
2019-02-28T17:33:11.259Z,13.20
2019-02-28T17:35:59.114Z,13.22
2019-02-28T17:38:46.895Z,12.89
2019-02-28T17:41:37.170Z,12.83
2019-02-28T17:44:57.674Z,12.81
2019-02-28T17:48:20.365Z,12.77
2019-02-28T17:51:22.022Z,12.78
2019-02-28T17:54:58.114Z,12.76
2019-02-28T17:58:28.980Z,12.65
2019-02-28T18:01:46.147Z,12.60
2019-02-28T18:05:30.134Z,12.67
2019-02-28T18:08:19.970Z,12.58
2019-02-28T18:11:47.489Z,12.49
2019-02-28T18:15:00.593Z,12.51
2019-02-28T18:18:18.059Z,12.44
2019-02-28T18:21:53.148Z,12.37
2019-02-28T18:25:21.941Z,12.30
2019-02-28T18:28:18.811Z,12.45
2019-02-28T18:31:32.123Z,12.37
2019-02-28T18:34:23.469Z,12.36
2019-02-28T18:37:11.883Z,12.30
2019-02-28T18:39:59.939Z,12.37
2019-02-28T18:42:50.859Z,12.31
2019-02-28T18:45:37.630Z,12.31
2019-02-28T18:48:25.598Z,12.22
2019-02-28T18:51:13.458Z,12.22
2019-02-28T18:54:01.446Z,12.14
2019-02-28T18:56:49.697Z,12.10
2019-02-28T18:59:37.845Z,12.23
2019-02-28T19:02:25.968Z,12.12
2019-02-28T19:05:14.158Z,12.13
2019-02-28T19:08:02.059Z,12.01
2019-02-28T19:10:50.132Z,11.76
2019-02-28T19:13:37.847Z,11.55
2019-02-28T19:16:25.732Z,11.25
2019-02-28T19:19:13.937Z,11.11
2019-02-28T19:22:02.040Z,11.01
2019-02-28T19:24:49.812Z,11.01
2019-02-28T19:27:37.779Z,10.66
2019-02-28T19:30:25.856Z,10.52
2019-02-28T19:33:13.860Z,10.39
2019-02-28T19:36:02.015Z,10.32
2019-02-28T19:38:50.215Z,10.34
2019-02-28T19:41:38.193Z,10.18
2019-02-28T19:44:26.254Z,10.01
2019-02-28T19:47:14.356Z,9.90
2019-02-28T19:50:02.178Z,9.94
2019-02-28T19:52:50.276Z,9.73
2019-02-28T19:55:38.279Z,9.66
2019-02-28T19:58:25.894Z,9.64
2019-02-28T20:01:19.113Z,9.67
2019-02-28T20:04:03.222Z,9.50
2019-02-28T20:06:51.598Z,9.42
2019-02-28T20:09:39.493Z,9.45
2019-02-28T20:12:27.254Z,9.39
2019-02-28T20:15:15.545Z,9.41
2019-02-28T20:18:03.726Z,9.41
2019-02-28T20:20:51.557Z,9.23
2019-02-28T20:23:39.801Z,9.34
2019-02-28T20:26:27.864Z,9.26
2019-02-28T20:29:15.780Z,9.42
2019-02-28T20:32:03.624Z,9.19
2019-02-28T20:34:51.543Z,9.38
2019-02-28T20:37:39.909Z,9.39
2019-02-28T20:40:28.060Z,9.51
2019-02-28T20:43:16.208Z,9.61
2019-02-28T20:46:04.513Z,9.66
2019-02-28T20:48:52.533Z,9.43
2019-02-28T20:51:40.721Z,9.52
2019-02-28T20:54:28.743Z,9.58
2019-02-28T20:57:17.097Z,9.40
2019-02-28T21:00:06.819Z,9.57
2019-02-28T21:02:55.066Z,9.62
2019-02-28T21:05:43.382Z,9.72
2019-02-28T21:08:31.776Z,9.84
2019-02-28T21:11:20.148Z,9.73
2019-02-28T21:14:08.101Z,9.88
2019-02-28T21:16:55.714Z,9.94
2019-02-28T21:19:43.795Z,9.93
2019-02-28T21:22:31.473Z,10.05
2019-02-28T21:25:19.890Z,9.84
2019-02-28T21:28:07.817Z,9.87
2019-02-28T21:30:55.985Z,9.84
2019-02-28T21:33:44.006Z,9.82
2019-02-28T21:36:32.588Z,9.78
2019-02-28T21:39:20.468Z,9.88
2019-02-28T21:42:08.586Z,9.89
2019-02-28T21:44:56.464Z,10.02
2019-02-28T21:47:45.200Z,10.12
2019-02-28T21:50:33.222Z,10.01
2019-02-28T21:53:21.617Z,10.08
2019-02-28T21:56:09.333Z,10.06
2019-02-28T21:58:57.835Z,10.11
2019-02-28T22:01:45.809Z,10.07
2019-02-28T22:04:33.758Z,10.05
2019-02-28T22:07:21.628Z,10.08
2019-02-28T22:10:10.322Z,10.20
2019-02-28T22:12:59.818Z,10.08
2019-02-28T22:15:47.922Z,10.00
2019-02-28T22:18:36.310Z,10.19
2019-02-28T22:21:24.247Z,10.16
2019-02-28T22:24:12.267Z,10.20
2019-02-28T22:26:59.866Z,10.21
2019-02-28T22:29:48.051Z,10.14
2019-02-28T22:32:43.235Z,10.16
2019-02-28T22:35:34.813Z,10.09
2019-02-28T22:38:22.794Z,10.14
2019-02-28T22:41:10.377Z,10.10
2019-02-28T22:43:58.504Z,10.02
2019-02-28T22:46:46.397Z,10.10
2019-02-28T22:49:34.806Z,10.09
2019-02-28T22:52:24.820Z,10.01
2019-02-28T22:55:13.346Z,9.99
2019-02-28T22:58:08.410Z,10.01
2019-02-28T23:01:09.367Z,9.88
2019-02-28T23:03:57.287Z,9.78
2019-02-28T23:06:45.306Z,9.81
2019-02-28T23:09:32.977Z,9.82
2019-02-28T23:12:21.116Z,9.95
2019-02-28T23:15:08.995Z,9.87
2019-02-28T23:17:56.922Z,9.86
2019-02-28T23:20:44.961Z,9.88
2019-02-28T23:23:33.055Z,9.76
2019-02-28T23:26:26.125Z,9.74
2019-02-28T23:29:18.181Z,9.78
2019-02-28T23:32:37.425Z,9.84
2019-02-28T23:35:29.926Z,9.88
2019-02-28T23:38:17.641Z,9.87
2019-02-28T23:41:06.079Z,9.78
2019-02-28T23:43:54.229Z,9.63
2019-02-28T23:46:42.268Z,9.69
2019-02-28T23:49:30.207Z,9.78
2019-02-28T23:52:18.367Z,9.85
2019-02-28T23:55:06.817Z,9.88
2019-02-28T23:57:54.762Z,9.88
